sensor_id;sensor_type;location;lat;lon;timestamp;temperature;humidity
480;DHT22;226;48.606;9.096;2024-01-15T00:01:06;-1.10;44.70
480;DHT22;226;48.606;9.096;2024-01-15T00:03:35;-0.80;44.70
480;DHT22;226;48.606;9.096;2024-01-15T00:06:04;-0.60;45.40
480;DHT22;226;48.606;9.096;2024-01-15T00:08:32;-0.90;44.20
480;DHT22;226;48.606;9.096;2024-01-15T00:11:00;-0.90;43.20
480;DHT22;226;48.606;9.096;2024-01-15T00:13:30;-0.50;45.40
480;DHT22;226;48.606;9.096;2024-01-15T00:15:58;-0.90;45.60
480;DHT22;226;48.606;9.096;2024-01-15T00:18:26;-0.90;43.60
480;DHT22;226;48.606;9.096;2024-01-15T00:20:54;-0.90;43.80
480;DHT22;226;48.606;9.096;2024-01-15T00:23:23;-0.90;43.50
480;DHT22;226;48.606;9.096;2024-01-15T00:25:51;-1.10;44.00
480;DHT22;226;48.606;9.096;2024-01-15T00:28:19;-0.80;45.40
480;DHT22;226;48.606;9.096;2024-01-15T00:30:49;-1.20;44.10
480;DHT22;226;48.606;9.096;2024-01-15T00:33:17;-1.00;44.50
480;DHT22;226;48.606;9.096;2024-01-15T00:35:45;-1.00;45.00
480;DHT22;226;48.606;9.096;2024-01-15T00:38:13;-0.90;45.50
480;DHT22;226;48.606;9.096;2024-01-15T00:40:42;-0.80;44.80
480;DHT22;226;48.606;9.096;2024-01-15T00:43:10;-0.80;44.50
480;DHT22;226;48.606;9.096;2024-01-15T00:45:38;-0.80;44.50
480;DHT22;226;48.606;9.096;2024-01-15T00:48:08;0.00;46.50
480;DHT22;226;48.606;9.096;2024-01-15T00:50:36;-0.80;43.30
480;DHT22;226;48.606;9.096;2024-01-15T00:53:04;-0.60;45.30
480;DHT22;226;48.606;9.096;2024-01-15T00:55:32;-0.70;43.60
480;DHT22;226;48.606;9.096;2024-01-15T00:58:00;-0.70;45.00
480;DHT22;226;48.606;9.096;2024-01-15T01:00:28;-0.80;43.30
480;DHT22;226;48.606;9.096;2024-01-15T01:02:57;-0.90;43.70
480;DHT22;226;48.606;9.096;2024-01-15T01:05:26;-0.50;45.70
480;DHT22;226;48.606;9.096;2024-01-15T01:07:55;-0.80;43.90
480;DHT22;226;48.606;9.096;2024-01-15T01:10:23;-0.70;45.40
480;DHT22;226;48.606;9.096;2024-01-15T01:12:51;-0.80;45.80
480;DHT22;226;48.606;9.096;2024-01-15T01:15:19;-0.50;46.60
480;DHT22;226;48.606;9.096;2024-01-15T01:17:48;-1.10;46.30
480;DHT22;226;48.606;9.096;2024-01-15T01:20:16;-1.10;46.90
480;DHT22;226;48.606;9.096;2024-01-15T01:22:46;-1.20;45.80
480;DHT22;226;48.606;9.096;2024-01-15T01:25:15;-1.30;46.00
480;DHT22;226;48.606;9.096;2024-01-15T01:27:43;-0.60;48.20
480;DHT22;226;48.606;9.096;2024-01-15T01:30:11;-1.00;47.20
480;DHT22;226;48.606;9.096;2024-01-15T01:32:40;-0.90;47.50
480;DHT22;226;48.606;9.096;2024-01-15T01:35:08;-1.20;45.80
480;DHT22;226;48.606;9.096;2024-01-15T01:37:36;-1.30;46.30
480;DHT22;226;48.606;9.096;2024-01-15T01:40:07;-1.40;48.30
480;DHT22;226;48.606;9.096;2024-01-15T01:42:36;-1.30;47.30
480;DHT22;226;48.606;9.096;2024-01-15T01:45:04;-1.20;48.50
480;DHT22;226;48.606;9.096;2024-01-15T01:47:33;-1.30;48.10
480;DHT22;226;48.606;9.096;2024-01-15T01:50:02;-1.30;47.90
480;DHT22;226;48.606;9.096;2024-01-15T01:52:30;-1.20;48.80
480;DHT22;226;48.606;9.096;2024-01-15T01:55:00;-1.20;48.30
480;DHT22;226;48.606;9.096;2024-01-15T01:57:30;-1.20;48.50
480;DHT22;226;48.606;9.096;2024-01-15T01:59:59;-1.10;49.00
480;DHT22;226;48.606;9.096;2024-01-15T02:02:28;-1.10;48.30
480;DHT22;226;48.606;9.096;2024-01-15T02:04:56;-1.20;49.80
480;DHT22;226;48.606;9.096;2024-01-15T02:07:24;-1.10;50.10
480;DHT22;226;48.606;9.096;2024-01-15T02:09:53;-0.80;49.10
480;DHT22;226;48.606;9.096;2024-01-15T02:12:22;-0.80;48.30
480;DHT22;226;48.606;9.096;2024-01-15T02:14:51;-1.20;49.50
480;DHT22;226;48.606;9.096;2024-01-15T02:17:19;0.60;49.20
480;DHT22;226;48.606;9.096;2024-01-15T02:19:47;-1.10;47.80
480;DHT22;226;48.606;9.096;2024-01-15T02:22:16;-1.00;48.30
480;DHT22;226;48.606;9.096;2024-01-15T02:24:45;-1.00;48.20
480;DHT22;226;48.606;9.096;2024-01-15T02:27:14;-1.00;48.20
480;DHT22;226;48.606;9.096;2024-01-15T02:29:42;-0.40;49.70
480;DHT22;226;48.606;9.096;2024-01-15T02:32:10;-0.70;49.80
480;DHT22;226;48.606;9.096;2024-01-15T02:34:39;-0.60;50.40
480;DHT22;226;48.606;9.096;2024-01-15T02:37:07;-0.90;50.30
480;DHT22;226;48.606;9.096;2024-01-15T02:39:35;-1.10;48.50
480;DHT22;226;48.606;9.096;2024-01-15T02:42:05;-0.90;50.00
480;DHT22;226;48.606;9.096;2024-01-15T02:44:34;-0.80;49.00
480;DHT22;226;48.606;9.096;2024-01-15T02:47:02;-0.80;50.50
480;DHT22;226;48.606;9.096;2024-01-15T02:49:30;-0.30;50.40
480;DHT22;226;48.606;9.096;2024-01-15T02:51:59;-0.40;50.90
480;DHT22;226;48.606;9.096;2024-01-15T02:54:27;-0.90;49.40
480;DHT22;226;48.606;9.096;2024-01-15T02:56:55;-1.00;49.50
480;DHT22;226;48.606;9.096;2024-01-15T02:59:25;-1.00;50.00
480;DHT22;226;48.606;9.096;2024-01-15T03:01:53;-0.40;51.80
480;DHT22;226;48.606;9.096;2024-01-15T03:04:21;-0.90;51.50
480;DHT22;226;48.606;9.096;2024-01-15T03:06:49;-1.20;51.80
480;DHT22;226;48.606;9.096;2024-01-15T03:09:18;-1.10;50.80
480;DHT22;226;48.606;9.096;2024-01-15T03:11:46;-1.10;51.20
480;DHT22;226;48.606;9.096;2024-01-15T03:14:15;-1.10;51.10
480;DHT22;226;48.606;9.096;2024-01-15T03:16:44;-1.20;51.00
480;DHT22;226;48.606;9.096;2024-01-15T03:19:13;-1.10;51.30
480;DHT22;226;48.606;9.096;2024-01-15T03:21:41;-1.10;51.60
480;DHT22;226;48.606;9.096;2024-01-15T03:24:09;-1.10;51.80
480;DHT22;226;48.606;9.096;2024-01-15T03:26:37;-1.00;51.70
480;DHT22;226;48.606;9.096;2024-01-15T03:29:05;-1.20;51.50
480;DHT22;226;48.606;9.096;2024-01-15T03:31:34;-1.20;52.60
480;DHT22;226;48.606;9.096;2024-01-15T03:34:03;-1.00;52.40
480;DHT22;226;48.606;9.096;2024-01-15T03:36:32;-1.00;53.50
480;DHT22;226;48.606;9.096;2024-01-15T03:39:00;-1.10;52.30
480;DHT22;226;48.606;9.096;2024-01-15T03:41:28;-1.10;52.30
480;DHT22;226;48.606;9.096;2024-01-15T03:43:56;0.00;55.80
480;DHT22;226;48.606;9.096;2024-01-15T03:46:25;-1.10;53.00
480;DHT22;226;48.606;9.096;2024-01-15T03:48:54;-1.10;53.70
480;DHT22;226;48.606;9.096;2024-01-15T03:51:23;-1.30;54.60
480;DHT22;226;48.606;9.096;2024-01-15T03:53:51;-1.20;57.60
480;DHT22;226;48.606;9.096;2024-01-15T03:56:20;-1.20;56.90
480;DHT22;226;48.606;9.096;2024-01-15T03:58:48;-1.10;56.90
480;DHT22;226;48.606;9.096;2024-01-15T04:01:16;-1.00;56.90
480;DHT22;226;48.606;9.096;2024-01-15T04:03:44;-1.00;57.70
480;DHT22;226;48.606;9.096;2024-01-15T04:06:12;-0.90;55.60
480;DHT22;226;48.606;9.096;2024-01-15T04:08:42;-0.80;57.20
480;DHT22;226;48.606;9.096;2024-01-15T04:11:10;-0.80;55.20
480;DHT22;226;48.606;9.096;2024-01-15T04:13:38;0.00;57.10
480;DHT22;226;48.606;9.096;2024-01-15T04:16:08;-0.50;56.40
480;DHT22;226;48.606;9.096;2024-01-15T04:18:36;-0.60;56.00
480;DHT22;226;48.606;9.096;2024-01-15T04:21:05;-0.60;55.80
480;DHT22;226;48.606;9.096;2024-01-15T04:23:33;-0.60;55.50
480;DHT22;226;48.606;9.096;2024-01-15T04:26:03;-0.40;55.30
480;DHT22;226;48.606;9.096;2024-01-15T04:28:31;-0.60;55.90
480;DHT22;226;48.606;9.096;2024-01-15T04:30:59;-0.30;56.00
480;DHT22;226;48.606;9.096;2024-01-15T04:33:28;-0.50;55.80
480;DHT22;226;48.606;9.096;2024-01-15T04:35:56;-0.40;53.80
480;DHT22;226;48.606;9.096;2024-01-15T04:38:24;-0.20;53.80
480;DHT22;226;48.606;9.096;2024-01-15T04:40:52;-0.20;55.40
480;DHT22;226;48.606;9.096;2024-01-15T04:43:25;-0.50;53.10
480;DHT22;226;48.606;9.096;2024-01-15T04:45:53;0.10;55.00
480;DHT22;226;48.606;9.096;2024-01-15T04:48:22;0.10;54.50
480;DHT22;226;48.606;9.096;2024-01-15T04:50:50;-0.10;53.50
480;DHT22;226;48.606;9.096;2024-01-15T04:53:18;0.30;54.70
480;DHT22;226;48.606;9.096;2024-01-15T04:55:47;-0.40;53.80
480;DHT22;226;48.606;9.096;2024-01-15T04:58:15;-0.60;53.30
480;DHT22;226;48.606;9.096;2024-01-15T05:00:44;-0.30;54.00
480;DHT22;226;48.606;9.096;2024-01-15T05:03:12;-0.30;55.20
480;DHT22;226;48.606;9.096;2024-01-15T05:05:41;-0.30;54.60
480;DHT22;226;48.606;9.096;2024-01-15T05:08:09;0.10;55.00
480;DHT22;226;48.606;9.096;2024-01-15T05:10:37;-0.30;54.00
480;DHT22;226;48.606;9.096;2024-01-15T05:13:05;-0.20;54.50
480;DHT22;226;48.606;9.096;2024-01-15T05:18:03;-0.10;64.90
480;DHT22;226;48.606;9.096;2024-01-15T05:20:31;-0.10;64.30
480;DHT22;226;48.606;9.096;2024-01-15T05:23:00;0.50;64.30
480;DHT22;226;48.606;9.096;2024-01-15T05:25:28;-0.20;62.20
480;DHT22;226;48.606;9.096;2024-01-15T05:27:56;-0.20;62.00
480;DHT22;226;48.606;9.096;2024-01-15T05:30:24;-0.30;60.90
480;DHT22;226;48.606;9.096;2024-01-15T05:32:52;-0.30;61.10
480;DHT22;226;48.606;9.096;2024-01-15T05:35:22;-0.90;60.50
480;DHT22;226;48.606;9.096;2024-01-15T05:37:50;-0.50;60.60
480;DHT22;226;48.606;9.096;2024-01-15T05:40:18;-0.40;60.90
480;DHT22;226;48.606;9.096;2024-01-15T05:42:46;-0.40;61.30
480;DHT22;226;48.606;9.096;2024-01-15T05:45:15;-0.50;61.10
480;DHT22;226;48.606;9.096;2024-01-15T05:47:43;-0.20;61.20
480;DHT22;226;48.606;9.096;2024-01-15T05:50:11;-0.20;62.60
480;DHT22;226;48.606;9.096;2024-01-15T05:52:41;-0.30;62.00
480;DHT22;226;48.606;9.096;2024-01-15T05:55:09;-0.20;63.60
480;DHT22;226;48.606;9.096;2024-01-15T05:57:37;-0.30;62.30
480;DHT22;226;48.606;9.096;2024-01-15T06:00:06;-0.30;62.60
480;DHT22;226;48.606;9.096;2024-01-15T06:02:37;-0.90;63.30
480;DHT22;226;48.606;9.096;2024-01-15T06:05:06;0.30;66.60
480;DHT22;226;48.606;9.096;2024-01-15T06:07:35;-0.20;66.70
480;DHT22;226;48.606;9.096;2024-01-15T06:10:05;-0.30;66.10
480;DHT22;226;48.606;9.096;2024-01-15T06:12:33;-0.20;66.10
480;DHT22;226;48.606;9.096;2024-01-15T06:15:02;-0.10;66.40
480;DHT22;226;48.606;9.096;2024-01-15T06:17:30;-0.20;65.70
480;DHT22;226;48.606;9.096;2024-01-15T06:19:59;-0.30;63.70
480;DHT22;226;48.606;9.096;2024-01-15T06:22:28;-0.40;65.00
480;DHT22;226;48.606;9.096;2024-01-15T06:24:56;-0.30;67.30
480;DHT22;226;48.606;9.096;2024-01-15T06:27:25;0.40;66.90
480;DHT22;226;48.606;9.096;2024-01-15T06:29:54;-0.40;65.40
480;DHT22;226;48.606;9.096;2024-01-15T06:32:23;-0.40;64.40
480;DHT22;226;48.606;9.096;2024-01-15T06:34:51;0.80;66.60
480;DHT22;226;48.606;9.096;2024-01-15T06:37:19;0.00;65.90
480;DHT22;226;48.606;9.096;2024-01-15T06:39:47;-0.20;65.50
480;DHT22;226;48.606;9.096;2024-01-15T06:42:16;-0.40;64.50
480;DHT22;226;48.606;9.096;2024-01-15T06:44:45;-0.30;65.20
480;DHT22;226;48.606;9.096;2024-01-15T06:47:13;0.10;66.50
480;DHT22;226;48.606;9.096;2024-01-15T06:49:41;-0.40;66.40
480;DHT22;226;48.606;9.096;2024-01-15T06:52:10;-0.60;65.80
480;DHT22;226;48.606;9.096;2024-01-15T06:54:39;-0.50;64.40
480;DHT22;226;48.606;9.096;2024-01-15T06:57:07;-0.30;64.30
480;DHT22;226;48.606;9.096;2024-01-15T06:59:35;-0.50;62.40
480;DHT22;226;48.606;9.096;2024-01-15T07:02:05;-0.50;62.60
480;DHT22;226;48.606;9.096;2024-01-15T07:04:33;-0.30;63.40
480;DHT22;226;48.606;9.096;2024-01-15T07:07:01;-0.10;61.50
480;DHT22;226;48.606;9.096;2024-01-15T07:09:30;-0.20;59.70
480;DHT22;226;48.606;9.096;2024-01-15T07:11:58;-0.10;60.10
480;DHT22;226;48.606;9.096;2024-01-15T07:14:26;0.00;60.50
480;DHT22;226;48.606;9.096;2024-01-15T07:16:54;0.40;58.80
480;DHT22;226;48.606;9.096;2024-01-15T07:19:24;0.00;56.00
480;DHT22;226;48.606;9.096;2024-01-15T07:21:52;0.00;55.80
480;DHT22;226;48.606;9.096;2024-01-15T07:24:23;-0.10;56.60
480;DHT22;226;48.606;9.096;2024-01-15T07:26:51;0.00;56.80
480;DHT22;226;48.606;9.096;2024-01-15T07:29:19;0.10;56.80
480;DHT22;226;48.606;9.096;2024-01-15T07:31:49;0.10;55.20
480;DHT22;226;48.606;9.096;2024-01-15T07:34:17;0.00;54.50
480;DHT22;226;48.606;9.096;2024-01-15T07:36:47;0.30;55.70
480;DHT22;226;48.606;9.096;2024-01-15T07:39:15;0.00;53.70
480;DHT22;226;48.606;9.096;2024-01-15T07:41:44;0.00;54.40
480;DHT22;226;48.606;9.096;2024-01-15T07:44:12;0.00;54.90
480;DHT22;226;48.606;9.096;2024-01-15T07:46:40;0.10;54.30
480;DHT22;226;48.606;9.096;2024-01-15T07:49:11;0.70;53.90
480;DHT22;226;48.606;9.096;2024-01-15T07:51:40;0.20;53.80
480;DHT22;226;48.606;9.096;2024-01-15T07:54:11;0.40;53.40
480;DHT22;226;48.606;9.096;2024-01-15T07:56:53;0.20;52.70
480;DHT22;226;48.606;9.096;2024-01-15T07:59:22;0.30;51.90
480;DHT22;226;48.606;9.096;2024-01-15T08:01:50;0.20;51.30
480;DHT22;226;48.606;9.096;2024-01-15T08:04:18;0.40;52.60
480;DHT22;226;48.606;9.096;2024-01-15T08:06:47;0.60;52.00
480;DHT22;226;48.606;9.096;2024-01-15T08:09:17;0.30;51.10
480;DHT22;226;48.606;9.096;2024-01-15T08:11:45;0.80;50.90
480;DHT22;226;48.606;9.096;2024-01-15T08:14:13;0.40;50.50
480;DHT22;226;48.606;9.096;2024-01-15T08:16:41;0.70;51.30
480;DHT22;226;48.606;9.096;2024-01-15T08:19:10;0.30;49.00
480;DHT22;226;48.606;9.096;2024-01-15T08:21:39;0.30;48.30
480;DHT22;226;48.606;9.096;2024-01-15T08:24:07;0.00;49.70
480;DHT22;226;48.606;9.096;2024-01-15T08:26:37;0.20;48.70
480;DHT22;226;48.606;9.096;2024-01-15T08:29:05;0.10;48.40
480;DHT22;226;48.606;9.096;2024-01-15T08:31:33;0.10;48.00
480;DHT22;226;48.606;9.096;2024-01-15T08:34:02;0.50;49.40
480;DHT22;226;48.606;9.096;2024-01-15T08:36:30;0.10;47.30
480;DHT22;226;48.606;9.096;2024-01-15T08:38:58;0.50;49.90
480;DHT22;226;48.606;9.096;2024-01-15T08:41:26;0.50;47.70
480;DHT22;226;48.606;9.096;2024-01-15T08:43:56;0.30;47.40
480;DHT22;226;48.606;9.096;2024-01-15T08:46:24;0.50;48.20
480;DHT22;226;48.606;9.096;2024-01-15T08:48:52;0.40;48.00
480;DHT22;226;48.606;9.096;2024-01-15T08:51:20;0.50;48.40
480;DHT22;226;48.606;9.096;2024-01-15T08:53:49;0.40;47.60
480;DHT22;226;48.606;9.096;2024-01-15T08:56:17;0.50;48.70
480;DHT22;226;48.606;9.096;2024-01-15T08:58:45;0.30;47.40
480;DHT22;226;48.606;9.096;2024-01-15T09:01:15;0.30;46.40
480;DHT22;226;48.606;9.096;2024-01-15T09:03:43;0.50;47.60
480;DHT22;226;48.606;9.096;2024-01-15T09:06:11;0.50;47.40
480;DHT22;226;48.606;9.096;2024-01-15T09:08:40;0.70;45.40
480;DHT22;226;48.606;9.096;2024-01-15T09:11:08;0.60;46.80
480;DHT22;226;48.606;9.096;2024-01-15T09:13:36;1.10;46.80
480;DHT22;226;48.606;9.096;2024-01-15T09:16:04;0.70;45.90
480;DHT22;226;48.606;9.096;2024-01-15T09:18:34;1.30;46.60
480;DHT22;226;48.606;9.096;2024-01-15T09:21:03;0.80;45.70
480;DHT22;226;48.606;9.096;2024-01-15T09:23:32;0.90;45.80
480;DHT22;226;48.606;9.096;2024-01-15T09:26:00;1.10;44.50
480;DHT22;226;48.606;9.096;2024-01-15T09:28:28;1.20;43.50
480;DHT22;226;48.606;9.096;2024-01-15T09:30:56;1.00;42.30
480;DHT22;226;48.606;9.096;2024-01-15T09:33:24;1.10;44.20
480;DHT22;226;48.606;9.096;2024-01-15T09:35:54;1.00;43.50
480;DHT22;226;48.606;9.096;2024-01-15T09:38:22;0.90;44.40
480;DHT22;226;48.606;9.096;2024-01-15T09:40:50;1.10;43.10
480;DHT22;226;48.606;9.096;2024-01-15T09:43:22;1.20;44.20
480;DHT22;226;48.606;9.096;2024-01-15T09:45:51;1.20;43.80
480;DHT22;226;48.606;9.096;2024-01-15T09:48:20;1.50;43.80
480;DHT22;226;48.606;9.096;2024-01-15T09:50:49;1.30;43.40
480;DHT22;226;48.606;9.096;2024-01-15T09:53:19;1.40;42.70
480;DHT22;226;48.606;9.096;2024-01-15T09:55:50;1.50;42.30
480;DHT22;226;48.606;9.096;2024-01-15T09:58:18;1.60;41.70
480;DHT22;226;48.606;9.096;2024-01-15T10:00:47;1.90;42.60
480;DHT22;226;48.606;9.096;2024-01-15T10:03:17;1.60;42.00
480;DHT22;226;48.606;9.096;2024-01-15T10:05:45;1.50;41.00
480;DHT22;226;48.606;9.096;2024-01-15T10:08:14;1.50;40.20
480;DHT22;226;48.606;9.096;2024-01-15T10:10:43;2.00;41.80
480;DHT22;226;48.606;9.096;2024-01-15T10:13:12;1.50;41.40
480;DHT22;226;48.606;9.096;2024-01-15T10:15:41;1.90;42.00
480;DHT22;226;48.606;9.096;2024-01-15T10:18:10;1.40;41.10
480;DHT22;226;48.606;9.096;2024-01-15T10:20:38;1.70;41.60
480;DHT22;226;48.606;9.096;2024-01-15T10:23:07;1.80;42.10
480;DHT22;226;48.606;9.096;2024-01-15T10:25:35;1.90;41.40
480;DHT22;226;48.606;9.096;2024-01-15T10:28:05;1.50;41.80
480;DHT22;226;48.606;9.096;2024-01-15T10:30:34;1.50;42.20
480;DHT22;226;48.606;9.096;2024-01-15T10:33:03;1.40;41.90
480;DHT22;226;48.606;9.096;2024-01-15T10:35:33;1.50;41.90
480;DHT22;226;48.606;9.096;2024-01-15T10:38:02;1.50;41.80
480;DHT22;226;48.606;9.096;2024-01-15T10:40:31;2.20;42.60
480;DHT22;226;48.606;9.096;2024-01-15T10:42:59;1.40;42.10
480;DHT22;226;48.606;9.096;2024-01-15T10:45:29;1.40;42.50
480;DHT22;226;48.606;9.096;2024-01-15T10:47:57;1.30;42.60
480;DHT22;226;48.606;9.096;2024-01-15T10:50:27;1.60;42.40
480;DHT22;226;48.606;9.096;2024-01-15T10:52:57;1.90;42.50
480;DHT22;226;48.606;9.096;2024-01-15T10:55:26;1.70;42.70
480;DHT22;226;48.606;9.096;2024-01-15T10:57:55;1.90;43.60
480;DHT22;226;48.606;9.096;2024-01-15T11:00:23;1.70;43.50
480;DHT22;226;48.606;9.096;2024-01-15T11:02:53;1.50;43.80
480;DHT22;226;48.606;9.096;2024-01-15T11:05:23;1.80;43.60
480;DHT22;226;48.606;9.096;2024-01-15T11:07:51;1.20;42.40
480;DHT22;226;48.606;9.096;2024-01-15T11:10:38;1.50;43.50
480;DHT22;226;48.606;9.096;2024-01-15T11:13:14;1.50;43.70
480;DHT22;226;48.606;9.096;2024-01-15T11:15:58;1.40;43.30
480;DHT22;226;48.606;9.096;2024-01-15T11:18:30;1.40;43.80
480;DHT22;226;48.606;9.096;2024-01-15T11:21:29;1.90;45.20
480;DHT22;226;48.606;9.096;2024-01-15T11:23:58;1.50;45.00
480;DHT22;226;48.606;9.096;2024-01-15T11:26:31;1.50;44.60
480;DHT22;226;48.606;9.096;2024-01-15T11:29:01;2.30;45.70
480;DHT22;226;48.606;9.096;2024-01-15T11:31:57;1.50;45.70
480;DHT22;226;48.606;9.096;2024-01-15T11:34:52;1.50;44.50
480;DHT22;226;48.606;9.096;2024-01-15T11:37:21;1.50;45.20
480;DHT22;226;48.606;9.096;2024-01-15T11:39:52;1.50;45.40
480;DHT22;226;48.606;9.096;2024-01-15T11:42:22;1.60;45.30
480;DHT22;226;48.606;9.096;2024-01-15T11:44:50;1.60;45.80
480;DHT22;226;48.606;9.096;2024-01-15T11:47:48;1.90;46.50
480;DHT22;226;48.606;9.096;2024-01-15T11:50:21;1.60;45.40
480;DHT22;226;48.606;9.096;2024-01-15T11:52:56;1.60;46.90
480;DHT22;226;48.606;9.096;2024-01-15T11:55:34;1.70;46.40
480;DHT22;226;48.606;9.096;2024-01-15T11:58:02;1.70;47.20
480;DHT22;226;48.606;9.096;2024-01-15T12:00:34;1.70;47.70
480;DHT22;226;48.606;9.096;2024-01-15T12:03:05;1.50;50.90
480;DHT22;226;48.606;9.096;2024-01-15T12:05:37;1.50;52.90
480;DHT22;226;48.606;9.096;2024-01-15T12:08:06;1.50;54.10
480;DHT22;226;48.606;9.096;2024-01-15T12:10:38;1.40;56.40
480;DHT22;226;48.606;9.096;2024-01-15T12:13:10;1.40;59.10
480;DHT22;226;48.606;9.096;2024-01-15T12:15:40;1.40;62.30
480;DHT22;226;48.606;9.096;2024-01-15T12:18:12;1.00;66.10
480;DHT22;226;48.606;9.096;2024-01-15T12:20:42;1.00;66.60
480;DHT22;226;48.606;9.096;2024-01-15T12:23:10;1.20;67.60
480;DHT22;226;48.606;9.096;2024-01-15T12:25:40;1.40;67.80
480;DHT22;226;48.606;9.096;2024-01-15T12:28:08;1.30;67.30
480;DHT22;226;48.606;9.096;2024-01-15T12:30:37;1.00;69.30
480;DHT22;226;48.606;9.096;2024-01-15T12:33:06;1.00;68.30
480;DHT22;226;48.606;9.096;2024-01-15T12:35:37;1.00;69.20
480;DHT22;226;48.606;9.096;2024-01-15T12:38:05;1.10;69.10
480;DHT22;226;48.606;9.096;2024-01-15T12:40:33;1.00;70.40
480;DHT22;226;48.606;9.096;2024-01-15T12:43:05;1.00;73.80
480;DHT22;226;48.606;9.096;2024-01-15T12:45:34;0.20;72.50
480;DHT22;226;48.606;9.096;2024-01-15T12:48:05;1.00;74.40
480;DHT22;226;48.606;9.096;2024-01-15T12:50:34;1.00;75.00
480;DHT22;226;48.606;9.096;2024-01-15T12:53:04;0.80;78.40
480;DHT22;226;48.606;9.096;2024-01-15T12:55:32;0.70;79.60
480;DHT22;226;48.606;9.096;2024-01-15T12:58:01;0.60;82.90
480;DHT22;226;48.606;9.096;2024-01-15T13:00:29;0.60;81.30
480;DHT22;226;48.606;9.096;2024-01-15T13:02:58;0.80;82.30
480;DHT22;226;48.606;9.096;2024-01-15T13:05:27;0.60;82.00
480;DHT22;226;48.606;9.096;2024-01-15T13:07:57;0.70;82.70
480;DHT22;226;48.606;9.096;2024-01-15T13:10:27;0.70;85.00
480;DHT22;226;48.606;9.096;2024-01-15T13:12:57;0.70;86.40
480;DHT22;226;48.606;9.096;2024-01-15T13:15:25;1.10;87.50
480;DHT22;226;48.606;9.096;2024-01-15T13:17:53;0.50;87.60
480;DHT22;226;48.606;9.096;2024-01-15T13:20:23;0.50;88.60
480;DHT22;226;48.606;9.096;2024-01-15T13:22:51;0.50;87.50
480;DHT22;226;48.606;9.096;2024-01-15T13:25:19;0.60;86.90
480;DHT22;226;48.606;9.096;2024-01-15T13:27:49;0.60;84.10
480;DHT22;226;48.606;9.096;2024-01-15T13:30:17;0.60;86.30
480;DHT22;226;48.606;9.096;2024-01-15T13:32:45;0.70;87.30
480;DHT22;226;48.606;9.096;2024-01-15T13:35:14;0.90;88.70
480;DHT22;226;48.606;9.096;2024-01-15T13:37:42;0.70;88.70
480;DHT22;226;48.606;9.096;2024-01-15T13:40:11;0.70;87.20
480;DHT22;226;48.606;9.096;2024-01-15T13:42:44;0.70;89.50
480;DHT22;226;48.606;9.096;2024-01-15T13:45:14;0.70;90.00
480;DHT22;226;48.606;9.096;2024-01-15T13:47:43;0.70;89.00
480;DHT22;226;48.606;9.096;2024-01-15T13:50:12;0.90;89.20
480;DHT22;226;48.606;9.096;2024-01-15T13:52:41;0.80;89.00
480;DHT22;226;48.606;9.096;2024-01-15T13:55:09;0.80;89.50
480;DHT22;226;48.606;9.096;2024-01-15T13:57:37;0.80;89.60
480;DHT22;226;48.606;9.096;2024-01-15T14:00:06;1.10;89.40
480;DHT22;226;48.606;9.096;2024-01-15T14:02:40;0.80;88.00
480;DHT22;226;48.606;9.096;2024-01-15T14:05:09;0.70;86.90
480;DHT22;226;48.606;9.096;2024-01-15T14:07:40;0.60;88.70
480;DHT22;226;48.606;9.096;2024-01-15T14:10:09;0.60;89.30
480;DHT22;226;48.606;9.096;2024-01-15T14:12:37;0.70;90.30
480;DHT22;226;48.606;9.096;2024-01-15T14:15:07;0.70;90.80
480;DHT22;226;48.606;9.096;2024-01-15T14:17:36;0.80;90.40
480;DHT22;226;48.606;9.096;2024-01-15T14:20:07;1.10;90.70
480;DHT22;226;48.606;9.096;2024-01-15T14:22:37;1.10;89.90
480;DHT22;226;48.606;9.096;2024-01-15T14:25:05;1.40;90.40
480;DHT22;226;48.606;9.096;2024-01-15T14:27:33;0.90;88.20
480;DHT22;226;48.606;9.096;2024-01-15T14:30:02;0.90;86.60
480;DHT22;226;48.606;9.096;2024-01-15T14:32:35;0.90;88.60
480;DHT22;226;48.606;9.096;2024-01-15T14:35:06;1.00;89.40
480;DHT22;226;48.606;9.096;2024-01-15T14:37:35;0.90;88.90
480;DHT22;226;48.606;9.096;2024-01-15T14:40:04;1.20;90.00
480;DHT22;226;48.606;9.096;2024-01-15T14:42:33;0.80;90.30
480;DHT22;226;48.606;9.096;2024-01-15T14:45:01;0.80;89.70
480;DHT22;226;48.606;9.096;2024-01-15T14:47:31;0.80;90.70
480;DHT22;226;48.606;9.096;2024-01-15T14:49:59;0.70;90.50
480;DHT22;226;48.606;9.096;2024-01-15T14:52:29;0.70;91.10
480;DHT22;226;48.606;9.096;2024-01-15T14:54:57;0.50;91.00
480;DHT22;226;48.606;9.096;2024-01-15T14:57:25;0.40;92.20
480;DHT22;226;48.606;9.096;2024-01-15T14:59:54;0.40;93.00
480;DHT22;226;48.606;9.096;2024-01-15T15:02:23;0.30;92.60
480;DHT22;226;48.606;9.096;2024-01-15T15:04:57;1.20;94.20
480;DHT22;226;48.606;9.096;2024-01-15T15:07:25;0.40;94.50
480;DHT22;226;48.606;9.096;2024-01-15T15:09:55;0.20;93.90
480;DHT22;226;48.606;9.096;2024-01-15T15:12:23;0.30;92.60
480;DHT22;226;48.606;9.096;2024-01-15T15:14:51;0.40;92.70
480;DHT22;226;48.606;9.096;2024-01-15T15:17:33;0.40;92.80
480;DHT22;226;48.606;9.096;2024-01-15T15:20:03;0.60;93.50
480;DHT22;226;48.606;9.096;2024-01-15T15:22:32;0.50;92.00
480;DHT22;226;48.606;9.096;2024-01-15T15:25:01;0.70;92.00
480;DHT22;226;48.606;9.096;2024-01-15T15:27:30;0.70;86.80
480;DHT22;226;48.606;9.096;2024-01-15T15:29:58;0.60;84.20
480;DHT22;226;48.606;9.096;2024-01-15T15:32:26;1.10;85.40
480;DHT22;226;48.606;9.096;2024-01-15T15:34:55;0.60;81.80
480;DHT22;226;48.606;9.096;2024-01-15T15:37:23;0.60;80.40
480;DHT22;226;48.606;9.096;2024-01-15T15:39:51;1.40;79.10
480;DHT22;226;48.606;9.096;2024-01-15T15:42:21;0.60;71.80
480;DHT22;226;48.606;9.096;2024-01-15T15:44:51;0.40;70.90
480;DHT22;226;48.606;9.096;2024-01-15T15:47:24;0.40;71.70
480;DHT22;226;48.606;9.096;2024-01-15T15:49:52;0.50;70.50
480;DHT22;226;48.606;9.096;2024-01-15T15:52:21;0.40;70.00
480;DHT22;226;48.606;9.096;2024-01-15T15:54:49;0.80;68.80
480;DHT22;226;48.606;9.096;2024-01-15T15:57:17;0.50;65.80
480;DHT22;226;48.606;9.096;2024-01-15T15:59:47;0.30;63.90
480;DHT22;226;48.606;9.096;2024-01-15T16:02:15;0.30;63.40
480;DHT22;226;48.606;9.096;2024-01-15T16:04:43;0.80;65.70
480;DHT22;226;48.606;9.096;2024-01-15T16:07:11;0.20;62.60
480;DHT22;226;48.606;9.096;2024-01-15T16:09:41;0.50;61.70
480;DHT22;226;48.606;9.096;2024-01-15T16:12:09;0.20;60.50
480;DHT22;226;48.606;9.096;2024-01-15T16:28:09;0.20;71.80
480;DHT22;226;48.606;9.096;2024-01-15T16:30:38;0.20;70.30
480;DHT22;226;48.606;9.096;2024-01-15T16:33:14;0.10;69.70
480;DHT22;226;48.606;9.096;2024-01-15T16:35:42;0.10;71.40
480;DHT22;226;48.606;9.096;2024-01-15T16:38:11;0.10;68.00
480;DHT22;226;48.606;9.096;2024-01-15T16:40:39;0.00;70.20
480;DHT22;226;48.606;9.096;2024-01-15T16:43:07;0.10;70.30
480;DHT22;226;48.606;9.096;2024-01-15T16:45:36;0.10;72.00
480;DHT22;226;48.606;9.096;2024-01-15T16:48:05;0.10;70.80
480;DHT22;226;48.606;9.096;2024-01-15T16:50:35;0.00;70.00
480;DHT22;226;48.606;9.096;2024-01-15T16:53:04;0.00;69.50
480;DHT22;226;48.606;9.096;2024-01-15T16:55:32;0.00;68.60
480;DHT22;226;48.606;9.096;2024-01-15T16:58:00;-0.10;69.20
480;DHT22;226;48.606;9.096;2024-01-15T17:00:29;0.10;69.40
480;DHT22;226;48.606;9.096;2024-01-15T17:02:57;-0.10;69.00
480;DHT22;226;48.606;9.096;2024-01-15T17:05:25;-0.20;68.80
480;DHT22;226;48.606;9.096;2024-01-15T17:07:55;-0.50;69.70
480;DHT22;226;48.606;9.096;2024-01-15T17:10:23;-0.30;70.40
480;DHT22;226;48.606;9.096;2024-01-15T17:12:51;-0.30;68.50